Trosper, Kentucky
Current Conditions -  °F | °C
As of 7:35 PM on Friday 24 Oct 2014 (Local Time) from K1A6 Reporting Station
Clear Clear  
Wind Chill: 53°   Ceiling: Unl
Heat Index: 53°   Visibility: 10mi
Dew Point: 42°   Wind: 0mph
Humidity: 65%   Direction: NA
Pressure: 30.07"   Gusts: NA
Location:  36.79°N, 83.82°W
Report Text: K1A6 242335Z AUTO 00000KT 10SM CLR 12/05 A3007 RMK AO2 T01180053
Loading
Personal Weather Stations






























Interactive Weather Map
Tropical Storm Tracking
New forecast layout! Learn more

10-Day Weather Forecast

Advertisements
Track Severe Weather on mobile